sensor_id;sensor_type;location;lat;lon;timestamp;pressure;altitude;pressure_sealevel;temperature
63689;BMP280;54895;40.928;14.480;2023-07-13T00:01:49;101483.53;;;32.78
63689;BMP280;54895;40.928;14.480;2023-07-13T00:04:17;101486.09;;;32.70
63689;BMP280;54895;40.928;14.480;2023-07-13T00:06:45;101481.81;;;32.63
63689;BMP280;54895;40.928;14.480;2023-07-13T00:09:13;101471.41;;;32.59
63689;BMP280;54895;40.928;14.480;2023-07-13T00:11:40;101478.59;;;32.72
63689;BMP280;54895;40.928;14.480;2023-07-13T00:14:08;101476.56;;;32.75
63689;BMP280;54895;40.928;14.480;2023-07-13T00:16:37;101484.88;;;32.77
63689;BMP280;54895;40.928;14.480;2023-07-13T00:19:04;101482.84;;;32.79
63689;BMP280;54895;40.928;14.480;2023-07-13T00:21:31;101483.03;;;32.56
63689;BMP280;54895;40.928;14.480;2023-07-13T00:23:58;101481.50;;;32.47
63689;BMP280;54895;40.928;14.480;2023-07-13T00:26:27;101481.34;;;32.41
63689;BMP280;54895;40.928;14.480;2023-07-13T00:28:53;101481.34;;;32.41
63689;BMP280;54895;40.928;14.480;2023-07-13T00:31:20;101492.09;;;32.27
63689;BMP280;54895;40.928;14.480;2023-07-13T00:33:47;101483.47;;;32.13
63689;BMP280;54895;40.928;14.480;2023-07-13T00:36:17;101484.34;;;31.90
63689;BMP280;54895;40.928;14.480;2023-07-13T00:38:44;101490.50;;;31.63
63689;BMP280;54895;40.928;14.480;2023-07-13T00:41:11;101482.97;;;31.64
63689;BMP280;54895;40.928;14.480;2023-07-13T00:43:38;101479.50;;;31.63
63689;BMP280;54895;40.928;14.480;2023-07-13T00:46:27;101476.09;;;31.65
63689;BMP280;54895;40.928;14.480;2023-07-13T00:48:56;101468.00;;;31.71
63689;BMP280;54895;40.928;14.480;2023-07-13T00:54:06;101471.16;;;31.87
63689;BMP280;54895;40.928;14.480;2023-07-13T00:56:34;101475.34;;;31.90
63689;BMP280;54895;40.928;14.480;2023-07-13T00:59:02;101476.34;;;32.02
63689;BMP280;54895;40.928;14.480;2023-07-13T01:04:59;101473.00;;;31.78
63689;BMP280;54895;40.928;14.480;2023-07-13T01:07:27;101470.81;;;31.73
63689;BMP280;54895;40.928;14.480;2023-07-13T01:09:57;101466.19;;;31.81
63689;BMP280;54895;40.928;14.480;2023-07-13T01:12:23;101462.19;;;31.86
63689;BMP280;54895;40.928;14.480;2023-07-13T01:14:57;101465.28;;;32.00
63689;BMP280;54895;40.928;14.480;2023-07-13T01:17:23;101464.69;;;32.04
63689;BMP280;54895;40.928;14.480;2023-07-13T01:19:50;101458.66;;;32.11
63689;BMP280;54895;40.928;14.480;2023-07-13T01:22:18;101457.44;;;32.18
63689;BMP280;54895;40.928;14.480;2023-07-13T01:24:48;101458.66;;;32.11
63689;BMP280;54895;40.928;14.480;2023-07-13T01:27:22;101457.16;;;32.06
63689;BMP280;54895;40.928;14.480;2023-07-13T01:29:52;101454.94;;;31.71
63689;BMP280;54895;40.928;14.480;2023-07-13T01:32:21;101456.16;;;31.64
63689;BMP280;54895;40.928;14.480;2023-07-13T01:34:51;101461.69;;;31.66
63689;BMP280;54895;40.928;14.480;2023-07-13T01:37:21;101459.78;;;31.73
63689;BMP280;54895;40.928;14.480;2023-07-13T01:39:47;101452.78;;;31.95
63689;BMP280;54895;40.928;14.480;2023-07-13T01:42:14;101454.28;;;32.00
63689;BMP280;54895;40.928;14.480;2023-07-13T01:44:41;101455.16;;;32.09
63689;BMP280;54895;40.928;14.480;2023-07-13T01:47:07;101458.09;;;31.87
63689;BMP280;54895;40.928;14.480;2023-07-13T01:49:34;101452.59;;;31.87
63689;BMP280;54895;40.928;14.480;2023-07-13T01:52:00;101445.16;;;31.94
63689;BMP280;54895;40.928;14.480;2023-07-13T01:54:26;101454.41;;;32.06
63689;BMP280;54895;40.928;14.480;2023-07-13T01:56:53;101451.66;;;32.06
63689;BMP280;54895;40.928;14.480;2023-07-13T01:59:19;101456.31;;;32.00
63689;BMP280;54895;40.928;14.480;2023-07-13T02:05:02;101465.28;;;32.00
63689;BMP280;54895;40.928;14.480;2023-07-13T02:07:29;101459.47;;;31.88
63689;BMP280;54895;40.928;14.480;2023-07-13T02:09:55;101449.88;;;31.89
63689;BMP280;54895;40.928;14.480;2023-07-13T02:12:22;101456.13;;;31.92
63689;BMP280;54895;40.928;14.480;2023-07-13T02:14:49;101449.69;;;31.81
63689;BMP280;54895;40.928;14.480;2023-07-13T02:17:16;101459.56;;;31.92
63689;BMP280;54895;40.928;14.480;2023-07-13T02:19:42;101450.09;;;31.99
63689;BMP280;54895;40.928;14.480;2023-07-13T02:22:09;101465.97;;;32.01
63689;BMP280;54895;40.928;14.480;2023-07-13T02:24:36;101458.09;;;31.87
63689;BMP280;54895;40.928;14.480;2023-07-13T02:27:04;101456.50;;;31.78
63689;BMP280;54895;40.928;14.480;2023-07-13T02:29:30;101457.84;;;31.77
63689;BMP280;54895;40.928;14.480;2023-07-13T02:31:57;101455.66;;;31.72
63689;BMP280;54895;40.928;14.480;2023-07-13T02:34:24;101453.50;;;31.68
63689;BMP280;54895;40.928;14.480;2023-07-13T02:36:51;101466.19;;;31.81
63689;BMP280;54895;40.928;14.480;2023-07-13T02:39:17;101459.00;;;31.68
63689;BMP280;54895;40.928;14.480;2023-07-13T02:41:44;101462.63;;;31.49
63689;BMP280;54895;40.928;14.480;2023-07-13T02:44:14;101467.00;;;31.58
63689;BMP280;54895;40.928;14.480;2023-07-13T02:46:41;101462.88;;;31.59
63689;BMP280;54895;40.928;14.480;2023-07-13T02:49:08;101465.59;;;31.57
63689;BMP280;54895;40.928;14.480;2023-07-13T02:51:35;101455.56;;;31.41
63689;BMP280;54895;40.928;14.480;2023-07-13T02:54:03;101459.47;;;31.34
63689;BMP280;54895;40.928;14.480;2023-07-13T02:56:32;101458.41;;;31.46
63689;BMP280;54895;40.928;14.480;2023-07-13T02:58:59;101463.69;;;31.91
63689;BMP280;54895;40.928;14.480;2023-07-13T03:01:26;101455.75;;;31.48
63689;BMP280;54895;40.928;14.480;2023-07-13T03:03:53;101462.50;;;31.44
63689;BMP280;54895;40.928;14.480;2023-07-13T03:06:20;101461.50;;;31.58
63689;BMP280;54895;40.928;14.480;2023-07-13T03:08:51;101459.78;;;31.46
63689;BMP280;54895;40.928;14.480;2023-07-13T03:11:19;101453.03;;;31.25
63689;BMP280;54895;40.928;14.480;2023-07-13T03:13:51;101453.44;;;31.39
63689;BMP280;54895;40.928;14.480;2023-07-13T03:16:20;101455.41;;;31.37
63689;BMP280;54895;40.928;14.480;2023-07-13T03:18:49;101461.09;;;31.43
63689;BMP280;54895;40.928;14.480;2023-07-13T03:21:16;101465.19;;;31.42
63689;BMP280;54895;40.928;14.480;2023-07-13T03:23:43;101467.31;;;31.43
63689;BMP280;54895;40.928;14.480;2023-07-13T03:26:13;101462.19;;;31.32
63689;BMP280;54895;40.928;14.480;2023-07-13T03:28:41;101460.16;;;31.32
63689;BMP280;54895;40.928;14.480;2023-07-13T03:31:21;101461.63;;;31.37
63689;BMP280;54895;40.928;14.480;2023-07-13T03:33:48;101465.59;;;31.30
63689;BMP280;54895;40.928;14.480;2023-07-13T03:36:21;101464.03;;;31.25
63689;BMP280;54895;40.928;14.480;2023-07-13T03:38:52;101467.63;;;31.30
63689;BMP280;54895;40.928;14.480;2023-07-13T03:41:23;101466.66;;;31.19
63689;BMP280;54895;40.928;14.480;2023-07-13T03:43:52;101463.03;;;31.13
63689;BMP280;54895;40.928;14.480;2023-07-13T03:46:21;101472.63;;;31.12
63689;BMP280;54895;40.928;14.480;2023-07-13T03:48:48;101471.50;;;31.21
63689;BMP280;54895;40.928;14.480;2023-07-13T03:51:16;101474.00;;;31.11
63689;BMP280;54895;40.928;14.480;2023-07-13T03:53:45;101471.22;;;30.85
63689;BMP280;54895;40.928;14.480;2023-07-13T03:56:15;101474.13;;;30.91
63689;BMP280;54895;40.928;14.480;2023-07-13T03:58:45;101476.09;;;31.12
63689;BMP280;54895;40.928;14.480;2023-07-13T04:01:18;101481.31;;;31.28
63689;BMP280;54895;40.928;14.480;2023-07-13T04:03:45;101475.81;;;31.28
63689;BMP280;54895;40.928;14.480;2023-07-13T04:06:21;101476.03;;;31.36
63689;BMP280;54895;40.928;14.480;2023-07-13T04:08:55;101481.81;;;31.46
63689;BMP280;54895;40.928;14.480;2023-07-13T04:11:25;101483.97;;;31.49
63689;BMP280;54895;40.928;14.480;2023-07-13T04:13:52;101488.03;;;31.46
63689;BMP280;54895;40.928;14.480;2023-07-13T04:16:20;101494.72;;;31.66
63689;BMP280;54895;40.928;14.480;2023-07-13T04:18:48;101484.50;;;31.71
63689;BMP280;54895;40.928;14.480;2023-07-13T04:21:16;101489.53;;;31.78
63689;BMP280;54895;40.928;14.480;2023-07-13T04:23:43;101484.41;;;31.94
63689;BMP280;54895;40.928;14.480;2023-07-13T04:26:10;101488.47;;;31.91
63689;BMP280;54895;40.928;14.480;2023-07-13T04:28:37;101483.88;;;32.02
63689;BMP280;54895;40.928;14.480;2023-07-13T04:31:04;101489.31;;;31.98
63689;BMP280;54895;40.928;14.480;2023-07-13T04:33:31;101494.75;;;32.25
63689;BMP280;54895;40.928;14.480;2023-07-13T04:35:58;101496.03;;;32.20
63689;BMP280;54895;40.928;14.480;2023-07-13T04:38:28;101498.91;;;32.26
63689;BMP280;54895;40.928;14.480;2023-07-13T04:41:00;101497.41;;;32.19
63689;BMP280;54895;40.928;14.480;2023-07-13T04:43:28;101508.47;;;32.23
63689;BMP280;54895;40.928;14.480;2023-07-13T04:45:56;101501.69;;;32.26
63689;BMP280;54895;40.928;14.480;2023-07-13T04:48:23;101503.09;;;32.27
63689;BMP280;54895;40.928;14.480;2023-07-13T04:50:57;101499.50;;;32.52
63689;BMP280;54895;40.928;14.480;2023-07-13T04:53:25;101505.31;;;32.66
63689;BMP280;54895;40.928;14.480;2023-07-13T04:55:51;101520.88;;;32.85
63689;BMP280;54895;40.928;14.480;2023-07-13T04:58:18;101511.28;;;32.88
63689;BMP280;54895;40.928;14.480;2023-07-13T05:00:45;101510.63;;;32.89
63689;BMP280;54895;40.928;14.480;2023-07-13T05:03:12;101528.09;;;33.02
63689;BMP280;54895;40.928;14.480;2023-07-13T05:05:38;101526.94;;;33.13
63689;BMP280;54895;40.928;14.480;2023-07-13T05:08:05;101521.69;;;32.91
63689;BMP280;54895;40.928;14.480;2023-07-13T05:10:31;101526.03;;;33.00
63689;BMP280;54895;40.928;14.480;2023-07-13T05:12:57;101521.63;;;33.22
63689;BMP280;54895;40.928;14.480;2023-07-13T05:15:23;101531.50;;;33.33
63689;BMP280;54895;40.928;14.480;2023-07-13T05:17:51;101533.72;;;33.43
63689;BMP280;54895;40.928;14.480;2023-07-13T05:20:18;101536.13;;;33.60
63689;BMP280;54895;40.928;14.480;2023-07-13T05:22:45;101537.03;;;33.73
63689;BMP280;54895;40.928;14.480;2023-07-13T05:25:14;101539.22;;;33.82
63689;BMP280;54895;40.928;14.480;2023-07-13T05:27:41;101537.75;;;33.75
63689;BMP280;54895;40.928;14.480;2023-07-13T05:30:07;101538.53;;;33.82
63689;BMP280;54895;40.928;14.480;2023-07-13T05:32:39;101544.19;;;33.90
63689;BMP280;54895;40.928;14.480;2023-07-13T05:35:06;101543.63;;;33.97
63689;BMP280;54895;40.928;14.480;2023-07-13T05:37:32;101546.56;;;34.07
63689;BMP280;54895;40.928;14.480;2023-07-13T05:39:59;101553.63;;;34.20
63689;BMP280;54895;40.928;14.480;2023-07-13T05:42:25;101552.09;;;34.09
63689;BMP280;54895;40.928;14.480;2023-07-13T05:44:51;101550.97;;;34.26
63689;BMP280;54895;40.928;14.480;2023-07-13T05:47:17;101556.97;;;34.60
63689;BMP280;54895;40.928;14.480;2023-07-13T05:49:44;101551.75;;;34.84
63689;BMP280;54895;40.928;14.480;2023-07-13T05:52:10;101557.16;;;34.74
63689;BMP280;54895;40.928;14.480;2023-07-13T05:54:36;101549.78;;;34.92
63689;BMP280;54895;40.928;14.480;2023-07-13T05:57:02;101545.81;;;35.11
63689;BMP280;54895;40.928;14.480;2023-07-13T05:59:28;101551.22;;;34.97
63689;BMP280;54895;40.928;14.480;2023-07-13T06:05:35;101554.56;;;35.57
63689;BMP280;54895;40.928;14.480;2023-07-13T06:08:04;101543.50;;;35.59
63689;BMP280;54895;40.928;14.480;2023-07-13T06:10:35;101544.25;;;35.65
63689;BMP280;54895;40.928;14.480;2023-07-13T06:13:02;101544.50;;;35.99
63689;BMP280;54895;40.928;14.480;2023-07-13T06:15:29;101551.56;;;36.18
63689;BMP280;54895;40.928;14.480;2023-07-13T06:17:56;101541.88;;;36.25
63689;BMP280;54895;40.928;14.480;2023-07-13T06:20:22;101547.59;;;36.52
63689;BMP280;54895;40.928;14.480;2023-07-13T06:22:49;101533.00;;;36.56
63689;BMP280;54895;40.928;14.480;2023-07-13T06:25:16;101552.47;;;36.70
63689;BMP280;54895;40.928;14.480;2023-07-13T06:27:43;101551.72;;;36.55
63689;BMP280;54895;40.928;14.480;2023-07-13T06:30:11;101541.97;;;36.41
63689;BMP280;54895;40.928;14.480;2023-07-13T06:32:38;101541.47;;;36.96
63689;BMP280;54895;40.928;14.480;2023-07-13T06:35:05;101546.28;;;36.87
63689;BMP280;54895;40.928;14.480;2023-07-13T06:37:32;101551.91;;;37.21
63689;BMP280;54895;40.928;14.480;2023-07-13T06:39:59;101550.53;;;37.42
63689;BMP280;54895;40.928;14.480;2023-07-13T06:42:26;101553.31;;;37.60
63689;BMP280;54895;40.928;14.480;2023-07-13T06:44:52;101544.97;;;37.58
63689;BMP280;54895;40.928;14.480;2023-07-13T06:47:19;101545.66;;;37.66
63689;BMP280;54895;40.928;14.480;2023-07-13T06:49:46;101540.09;;;37.74
63689;BMP280;54895;40.928;14.480;2023-07-13T06:52:12;101553.22;;;38.07
63689;BMP280;54895;40.928;14.480;2023-07-13T06:54:40;101545.53;;;38.22
63689;BMP280;54895;40.928;14.480;2023-07-13T06:57:06;101546.19;;;38.32
63689;BMP280;54895;40.928;14.480;2023-07-13T06:59:33;101539.25;;;38.29
63689;BMP280;54895;40.928;14.480;2023-07-13T07:06:19;101548.19;;;38.52
63689;BMP280;54895;40.928;14.480;2023-07-13T07:08:45;101548.84;;;38.60
63689;BMP280;54895;40.928;14.480;2023-07-13T07:11:14;101540.38;;;38.74
63689;BMP280;54895;40.928;14.480;2023-07-13T07:13:40;101547.44;;;38.55
63689;BMP280;54895;40.928;14.480;2023-07-13T07:16:07;101543.34;;;38.42
63689;BMP280;54895;40.928;14.480;2023-07-13T07:18:34;101546.13;;;38.44
63689;BMP280;54895;40.928;14.480;2023-07-13T07:21:01;101555.69;;;38.77
63689;BMP280;54895;40.928;14.480;2023-07-13T07:23:27;101554.75;;;39.14
63689;BMP280;54895;40.928;14.480;2023-07-13T07:25:53;101561.88;;;38.85
63689;BMP280;54895;40.928;14.480;2023-07-13T07:28:20;101554.22;;;38.92
63689;BMP280;54895;40.928;14.480;2023-07-13T07:30:47;101552.91;;;38.75
63689;BMP280;54895;40.928;14.480;2023-07-13T07:33:14;101550.38;;;38.21
63689;BMP280;54895;40.928;14.480;2023-07-13T07:35:40;101543.34;;;38.44
63689;BMP280;54895;40.928;14.480;2023-07-13T07:38:06;101551.34;;;39.02
63689;BMP280;54895;40.928;14.480;2023-07-13T07:40:39;101542.66;;;39.43
63689;BMP280;54895;40.928;14.480;2023-07-13T07:43:07;101550.63;;;39.81
63689;BMP280;54895;40.928;14.480;2023-07-13T07:45:34;101546.31;;;39.90
63689;BMP280;54895;40.928;14.480;2023-07-13T07:48:00;101552.91;;;38.77
63689;BMP280;54895;40.928;14.480;2023-07-13T07:50:28;101553.22;;;38.07
63689;BMP280;54895;40.928;14.480;2023-07-13T07:52:54;101540.75;;;37.96
63689;BMP280;54895;40.928;14.480;2023-07-13T07:55:23;101545.63;;;37.86
63689;BMP280;54895;40.928;14.480;2023-07-13T07:57:49;101554.41;;;38.60
63689;BMP280;54895;40.928;14.480;2023-07-13T08:00:16;101550.19;;;38.65
63689;BMP280;54895;40.928;14.480;2023-07-13T08:05:52;101543.53;;;39.92
63689;BMP280;54895;40.928;14.480;2023-07-13T08:08:19;101538.09;;;40.36
63689;BMP280;54895;40.928;14.480;2023-07-13T08:10:46;101535.53;;;40.66
63689;BMP280;54895;40.928;14.480;2023-07-13T08:13:12;101532.22;;;41.00
63689;BMP280;54895;40.928;14.480;2023-07-13T08:15:39;101537.69;;;40.64
63689;BMP280;54895;40.928;14.480;2023-07-13T08:18:06;101542.06;;;40.49
63689;BMP280;54895;40.928;14.480;2023-07-13T08:20:41;101539.91;;;40.56
63689;BMP280;54895;40.928;14.480;2023-07-13T08:23:09;101543.16;;;40.72
63689;BMP280;54895;40.928;14.480;2023-07-13T08:25:36;101541.00;;;40.74
63689;BMP280;54895;40.928;14.480;2023-07-13T08:28:04;101527.59;;;41.25
63689;BMP280;54895;40.928;14.480;2023-07-13T08:30:30;101528.50;;;41.50
63689;BMP280;54895;40.928;14.480;2023-07-13T08:32:57;101532.31;;;41.34
63689;BMP280;54895;40.928;14.480;2023-07-13T08:35:24;101532.75;;;41.49
63689;BMP280;54895;40.928;14.480;2023-07-13T08:37:52;101529.50;;;41.34
63689;BMP280;54895;40.928;14.480;2023-07-13T08:40:24;101535.66;;;41.03
63689;BMP280;54895;40.928;14.480;2023-07-13T08:42:57;101527.59;;;41.23
63689;BMP280;54895;40.928;14.480;2023-07-13T08:45:44;101531.97;;;41.14
63689;BMP280;54895;40.928;14.480;2023-07-13T08:48:17;101532.94;;;41.37
63689;BMP280;54895;40.928;14.480;2023-07-13T08:50:58;101535.78;;;41.35
63689;BMP280;54895;40.928;14.480;2023-07-13T08:53:33;101534.69;;;41.91
63689;BMP280;54895;40.928;14.480;2023-07-13T08:56:02;101537.53;;;41.89
63689;BMP280;54895;40.928;14.480;2023-07-13T08:58:30;101534.09;;;41.14
63689;BMP280;54895;40.928;14.480;2023-07-13T09:01:18;101535.16;;;40.90
63689;BMP280;54895;40.928;14.480;2023-07-13T09:03:59;101530.03;;;41.79
63689;BMP280;54895;40.928;14.480;2023-07-13T09:06:34;101528.84;;;42.02
63689;BMP280;54895;40.928;14.480;2023-07-13T09:09:19;101525.56;;;42.24
63689;BMP280;54895;40.928;14.480;2023-07-13T09:17:04;101514.91;;;42.61
63689;BMP280;54895;40.928;14.480;2023-07-13T09:19:33;101513.00;;;42.80
63689;BMP280;54895;40.928;14.480;2023-07-13T09:22:03;101519.81;;;42.87
63689;BMP280;54895;40.928;14.480;2023-07-13T09:24:36;101522.38;;;42.97
63689;BMP280;54895;40.928;14.480;2023-07-13T09:27:11;101518.53;;;42.84
63689;BMP280;54895;40.928;14.480;2023-07-13T09:29:42;101519.31;;;42.80
63689;BMP280;54895;40.928;14.480;2023-07-13T09:32:12;101525.56;;;42.24
63689;BMP280;54895;40.928;14.480;2023-07-13T09:34:50;101527.06;;;41.87
63689;BMP280;54895;40.928;14.480;2023-07-13T09:37:19;101518.88;;;41.43
63689;BMP280;54895;40.928;14.480;2023-07-13T09:39:49;101523.84;;;41.00
63689;BMP280;54895;40.928;14.480;2023-07-13T09:42:21;101522.50;;;40.53
63689;BMP280;54895;40.928;14.480;2023-07-13T09:44:55;101522.44;;;41.01
63689;BMP280;54895;40.928;14.480;2023-07-13T09:47:24;101529.16;;;41.16
63689;BMP280;54895;40.928;14.480;2023-07-13T09:50:07;101524.59;;;41.71
63689;BMP280;54895;40.928;14.480;2023-07-13T09:52:42;101524.06;;;41.97
63689;BMP280;54895;40.928;14.480;2023-07-13T09:55:30;101513.13;;;41.15
63689;BMP280;54895;40.928;14.480;2023-07-13T09:57:57;101517.06;;;41.28
63689;BMP280;54895;40.928;14.480;2023-07-13T10:00:27;101524.19;;;41.21
63689;BMP280;54895;40.928;14.480;2023-07-13T10:03:05;101525.22;;;41.76
63689;BMP280;54895;40.928;14.480;2023-07-13T10:05:40;101523.94;;;41.34
63689;BMP280;54895;40.928;14.480;2023-07-13T10:11:01;101527.81;;;41.86
63689;BMP280;54895;40.928;14.480;2023-07-13T10:13:37;101524.47;;;41.43
63689;BMP280;54895;40.928;14.480;2023-07-13T10:16:06;101530.22;;;41.33
63689;BMP280;54895;40.928;14.480;2023-07-13T10:18:49;101516.50;;;41.19
63689;BMP280;54895;40.928;14.480;2023-07-13T10:21:22;101524.91;;;41.19
63689;BMP280;54895;40.928;14.480;2023-07-13T10:23:56;101531.75;;;41.28
63689;BMP280;54895;40.928;14.480;2023-07-13T10:26:32;101523.81;;;41.77
63689;BMP280;54895;40.928;14.480;2023-07-13T10:29:04;101515.91;;;41.53
63689;BMP280;54895;40.928;14.480;2023-07-13T10:31:35;101509.69;;;41.48
63689;BMP280;54895;40.928;14.480;2023-07-13T10:34:03;101515.75;;;41.61
63689;BMP280;54895;40.928;14.480;2023-07-13T10:36:40;101515.66;;;42.29
63689;BMP280;54895;40.928;14.480;2023-07-13T10:41:44;101513.38;;;41.39
63689;BMP280;54895;40.928;14.480;2023-07-13T10:44:26;101514.72;;;41.42
63689;BMP280;54895;40.928;14.480;2023-07-13T10:47:00;101517.56;;;41.74
63689;BMP280;54895;40.928;14.480;2023-07-13T10:49:29;101517.19;;;41.58
63689;BMP280;54895;40.928;14.480;2023-07-13T10:51:57;101513.06;;;41.55
63689;BMP280;54895;40.928;14.480;2023-07-13T10:57:19;101515.72;;;42.27
63689;BMP280;54895;40.928;14.480;2023-07-13T11:02:35;101514.47;;;42.20
63689;BMP280;54895;40.928;14.480;2023-07-13T11:05:22;101520.38;;;42.06
63689;BMP280;54895;40.928;14.480;2023-07-13T11:07:55;101525.44;;;41.64
63689;BMP280;54895;40.928;14.480;2023-07-13T11:16:13;101504.88;;;41.79
63689;BMP280;54895;40.928;14.480;2023-07-13T11:18:40;101499.22;;;42.13
63689;BMP280;54895;40.928;14.480;2023-07-13T11:21:26;101502.00;;;41.83
63689;BMP280;54895;40.928;14.480;2023-07-13T11:24:02;101500.44;;;42.22
63689;BMP280;54895;40.928;14.480;2023-07-13T11:31:55;101503.25;;;41.56
63689;BMP280;54895;40.928;14.480;2023-07-13T11:34:42;101502.13;;;41.75
63689;BMP280;54895;40.928;14.480;2023-07-13T11:37:12;101492.84;;;42.47
63689;BMP280;54895;40.928;14.480;2023-07-13T11:39:44;101493.97;;;42.30
63689;BMP280;54895;40.928;14.480;2023-07-13T11:42:17;101502.41;;;41.95
63689;BMP280;54895;40.928;14.480;2023-07-13T11:44:47;101497.34;;;42.91
63689;BMP280;54895;40.928;14.480;2023-07-13T11:47:18;101496.41;;;42.72
63689;BMP280;54895;40.928;14.480;2023-07-13T11:49:55;101492.84;;;42.75
63689;BMP280;54895;40.928;14.480;2023-07-13T11:52:35;101497.91;;;42.10
63689;BMP280;54895;40.928;14.480;2023-07-13T11:55:14;101495.09;;;42.41
63689;BMP280;54895;40.928;14.480;2023-07-13T11:58:01;101488.16;;;42.66
63689;BMP280;54895;40.928;14.480;2023-07-13T12:00:31;101491.84;;;42.00
63689;BMP280;54895;40.928;14.480;2023-07-13T12:03:00;101500.47;;;42.20
63689;BMP280;54895;40.928;14.480;2023-07-13T12:05:28;101484.88;;;42.29
63689;BMP280;54895;40.928;14.480;2023-07-13T12:07:57;101488.31;;;42.60
63689;BMP280;54895;40.928;14.480;2023-07-13T12:10:27;101487.47;;;42.94
63689;BMP280;54895;40.928;14.480;2023-07-13T12:13:03;101488.53;;;43.55
63689;BMP280;54895;40.928;14.480;2023-07-13T12:15:39;101487.84;;;43.30
63689;BMP280;54895;40.928;14.480;2023-07-13T12:18:21;101484.81;;;43.38
63689;BMP280;54895;40.928;14.480;2023-07-13T12:20:48;101476.03;;;43.97
63689;BMP280;54895;40.928;14.480;2023-07-13T12:25:51;101474.91;;;43.17
63689;BMP280;54895;40.928;14.480;2023-07-13T12:28:33;101479.25;;;43.36
63689;BMP280;54895;40.928;14.480;2023-07-13T12:31:03;101481.97;;;43.87
63689;BMP280;54895;40.928;14.480;2023-07-13T12:33:30;101466.66;;;42.58
63689;BMP280;54895;40.928;14.480;2023-07-13T12:36:01;101470.44;;;43.26
63689;BMP280;54895;40.928;14.480;2023-07-13T12:38:30;101470.03;;;43.64
63689;BMP280;54895;40.928;14.480;2023-07-13T12:40:57;101469.38;;;43.86
63689;BMP280;54895;40.928;14.480;2023-07-13T12:43:25;101472.53;;;43.96
63689;BMP280;54895;40.928;14.480;2023-07-13T12:45:59;101469.31;;;43.88
63689;BMP280;54895;40.928;14.480;2023-07-13T12:48:28;101475.41;;;44.57
63689;BMP280;54895;40.928;14.480;2023-07-13T12:50:55;101470.03;;;44.09
63689;BMP280;54895;40.928;14.480;2023-07-13T12:53:28;101469.16;;;43.70
63689;BMP280;54895;40.928;14.480;2023-07-13T12:56:02;101471.66;;;44.02
63689;BMP280;54895;40.928;14.480;2023-07-13T12:58:38;101474.84;;;43.90
63689;BMP280;54895;40.928;14.480;2023-07-13T13:01:05;101469.97;;;43.66
63689;BMP280;54895;40.928;14.480;2023-07-13T13:06:26;101473.03;;;43.80
63689;BMP280;54895;40.928;14.480;2023-07-13T13:08:55;101465.56;;;43.95
63689;BMP280;54895;40.928;14.480;2023-07-13T13:11:23;101466.50;;;43.88
63689;BMP280;54895;40.928;14.480;2023-07-13T13:13:50;101471.81;;;43.51
63689;BMP280;54895;40.928;14.480;2023-07-13T13:18:43;101471.06;;;42.78
63689;BMP280;54895;40.928;14.480;2023-07-13T13:21:10;101470.41;;;43.04
63689;BMP280;54895;40.928;14.480;2023-07-13T13:23:36;101468.72;;;43.13
63689;BMP280;54895;40.928;14.480;2023-07-13T13:26:05;101468.00;;;42.88
63689;BMP280;54895;40.928;14.480;2023-07-13T13:28:31;101465.50;;;43.51
63689;BMP280;54895;40.928;14.480;2023-07-13T13:30:58;101457.19;;;43.49
63689;BMP280;54895;40.928;14.480;2023-07-13T13:33:24;101465.75;;;43.18
63689;BMP280;54895;40.928;14.480;2023-07-13T13:35:51;101468.13;;;43.81
63689;BMP280;54895;40.928;14.480;2023-07-13T13:38:20;101453.97;;;43.63
63689;BMP280;54895;40.928;14.480;2023-07-13T13:40:46;101455.13;;;42.97
63689;BMP280;54895;40.928;14.480;2023-07-13T13:43:22;101454.66;;;42.36
63689;BMP280;54895;40.928;14.480;2023-07-13T13:45:53;101457.22;;;42.15
63689;BMP280;54895;40.928;14.480;2023-07-13T13:48:35;101447.41;;;42.73
63689;BMP280;54895;40.928;14.480;2023-07-13T13:51:13;101454.66;;;42.62
63689;BMP280;54895;40.928;14.480;2023-07-13T13:53:39;101442.97;;;43.06
63689;BMP280;54895;40.928;14.480;2023-07-13T13:56:05;101454.09;;;43.34
63689;BMP280;54895;40.928;14.480;2023-07-13T13:58:32;101455.00;;;43.96
63689;BMP280;54895;40.928;14.480;2023-07-13T14:00:58;101449.97;;;44.00
63689;BMP280;54895;40.928;14.480;2023-07-13T14:06:29;101445.53;;;43.85
63689;BMP280;54895;40.928;14.480;2023-07-13T14:08:56;101455.13;;;43.92
63689;BMP280;54895;40.928;14.480;2023-07-13T14:11:23;101446.84;;;43.66
63689;BMP280;54895;40.928;14.480;2023-07-13T14:13:54;101454.25;;;43.75
63689;BMP280;54895;40.928;14.480;2023-07-13T14:16:24;101456.59;;;43.91
63689;BMP280;54895;40.928;14.480;2023-07-13T14:18:55;101444.44;;;44.19
63689;BMP280;54895;40.928;14.480;2023-07-13T14:21:24;101440.81;;;43.33
63689;BMP280;54895;40.928;14.480;2023-07-13T14:23:52;101443.78;;;43.03
63689;BMP280;54895;40.928;14.480;2023-07-13T14:26:20;101441.53;;;43.09
63689;BMP280;54895;40.928;14.480;2023-07-13T14:28:49;101441.03;;;42.48
63689;BMP280;54895;40.928;14.480;2023-07-13T14:31:17;101443.25;;;42.70
63689;BMP280;54895;40.928;14.480;2023-07-13T14:33:44;101443.56;;;43.11
63689;BMP280;54895;40.928;14.480;2023-07-13T14:38:53;101434.69;;;43.26
63689;BMP280;54895;40.928;14.480;2023-07-13T14:41:20;101445.06;;;43.79
63689;BMP280;54895;40.928;14.480;2023-07-13T14:43:47;101432.47;;;43.31
63689;BMP280;54895;40.928;14.480;2023-07-13T14:46:29;101425.19;;;43.16
63689;BMP280;54895;40.928;14.480;2023-07-13T14:49:03;101426.97;;;42.50
63689;BMP280;54895;40.928;14.480;2023-07-13T14:51:31;101419.91;;;42.53
63689;BMP280;54895;40.928;14.480;2023-07-13T14:54:04;101423.63;;;42.72
63689;BMP280;54895;40.928;14.480;2023-07-13T14:56:31;101429.09;;;42.76
63689;BMP280;54895;40.928;14.480;2023-07-13T14:58:58;101446.34;;;42.86